Time;durP1;ratioP1;P1;durP2;ratioP2;P2;SDS_P1;SDS_P2;PMS_P1;PMS_P2;Temp;Humidity;BMP_temperature;BMP_pressure;BME280_temperature;BME280_humidity;BME280_pressure;Samples;Min_cycle;Max_cycle;Signal;HPM_P1;HPM_P2
2021/04/15 00:02:07;;;;;;;8.10;6.75;;;;;;;6.91;100.00;101214.50;5035871;28;20040;-74
2021/04/15 00:04:53;;;;;;;9.25;6.95;;;;;;;6.56;100.00;101229.06;5021224;28;20057;-74
2021/04/15 00:07:38;;;;;;;8.65;6.78;;;;;;;6.27;100.00;101220.16;5021297;28;20037;-74
2021/04/15 00:10:37;;;;;;;8.65;6.47;;;;;;;6.61;100.00;101221.28;5020759;28;20516;-74
2021/04/15 00:13:35;;;;;;;11.32;6.82;;;;;;;6.87;100.00;101210.16;5034520;28;20025;-74
2021/04/15 00:16:22;;;;;;;8.73;6.70;;;;;;;6.76;100.00;101208.34;5035487;28;20413;-74
2021/04/15 00:19:10;;;;;;;8.15;6.38;;;;;;;6.48;100.00;101204.72;5034844;28;20069;-74
2021/04/15 00:21:55;;;;;;;8.02;6.13;;;;;;;6.43;100.00;101211.59;5021373;28;20403;-74
2021/04/15 00:24:41;;;;;;;7.97;6.30;;;;;;;6.64;100.00;101203.97;5033966;28;20353;-73
2021/04/15 00:27:27;;;;;;;8.35;6.25;;;;;;;6.65;100.00;101210.91;5020921;28;20335;-74
2021/04/15 00:30:17;;;;;;;7.07;5.68;;;;;;;6.69;100.00;101209.19;5034321;28;20025;-75
2021/04/15 00:33:07;;;;;;;8.18;5.93;;;;;;;6.56;100.00;101208.25;5047546;28;20370;-74
2021/04/15 00:35:53;;;;;;;6.88;5.75;;;;;;;6.80;100.00;101207.50;5039464;28;20358;-74
2021/04/15 00:38:39;;;;;;;7.00;5.38;;;;;;;6.71;100.00;101202.25;5034602;28;20056;-73
2021/04/15 00:41:25;;;;;;;7.90;6.00;;;;;;;6.66;100.00;101211.75;5036228;28;20091;-74
2021/04/15 00:44:11;;;;;;;7.40;5.80;;;;;;;6.28;100.00;101211.53;5034274;28;20045;-74
2021/04/15 00:47:03;;;;;;;7.60;5.63;;;;;;;6.39;100.00;101207.25;5035065;28;20040;-73
2021/04/15 00:49:56;;;;;;;7.90;5.82;;;;;;;6.49;100.00;101202.97;5021102;28;20037;-74
2021/04/15 00:52:52;;;;;;;8.18;5.20;;;;;;;6.36;100.00;101208.97;5034251;28;20029;-73
2021/04/15 00:55:38;;;;;;;7.80;5.93;;;;;;;6.45;100.00;101207.28;5033817;28;20091;-73
2021/04/15 00:58:27;;;;;;;7.93;5.90;;;;;;;6.51;100.00;101196.06;5033038;28;20022;-73
2021/04/15 01:01:12;;;;;;;6.95;5.45;;;;;;;6.67;100.00;101203.09;5034793;28;20031;-73
2021/04/15 01:03:58;;;;;;;8.65;5.90;;;;;;;6.89;100.00;101191.94;5033844;28;20595;-73
2021/04/15 01:06:44;;;;;;;8.70;5.15;;;;;;;6.83;100.00;101195.38;5020477;28;20056;-74
2021/04/15 01:09:30;;;;;;;7.40;5.60;;;;;;;6.81;100.00;101199.72;5033867;28;20057;-73
2021/04/15 01:12:41;;;;;;;6.57;5.25;;;;;;;6.78;100.00;101188.38;5032991;28;20030;-74
2021/04/15 01:15:30;;;;;;;6.57;5.38;;;;;;;6.76;100.00;101191.00;5032756;28;20087;-73
2021/04/15 01:18:35;;;;;;;6.07;4.72;;;;;;;6.53;100.00;101192.59;5032800;28;20057;-73
2021/04/15 01:22:03;;;;;;;7.47;5.57;;;;;;;6.60;100.00;101193.50;5006705;28;20075;-72
2021/04/15 01:25:13;;;;;;;6.70;4.95;;;;;;;6.57;100.00;101193.47;5020515;28;20036;-73
2021/04/15 01:28:17;;;;;;;7.63;5.20;;;;;;;6.55;100.00;101190.00;5033056;28;20022;-73
2021/04/15 01:31:13;;;;;;;7.63;5.13;;;;;;;6.66;100.00;101191.81;5032889;28;20029;-73
2021/04/15 01:34:06;;;;;;;6.45;4.95;;;;;;;6.66;100.00;101188.31;5034006;28;20025;-73
2021/04/15 01:37:01;;;;;;;6.65;5.40;;;;;;;6.75;100.00;101188.41;5033304;28;20036;-73
2021/04/15 01:39:54;;;;;;;7.10;5.43;;;;;;;6.52;100.00;101193.47;5032887;28;20120;-73
2021/04/15 01:42:53;;;;;;;6.35;5.07;;;;;;;6.45;100.00;101198.59;5020560;28;20446;-73
2021/04/15 01:45:44;;;;;;;6.53;5.07;;;;;;;6.58;100.00;101192.63;5019634;28;20064;-73
2021/04/15 01:48:44;;;;;;;7.57;5.93;;;;;;;6.63;100.00;101190.94;5034230;28;20022;-73
2021/04/15 01:51:34;;;;;;;6.95;5.65;;;;;;;6.40;100.00;101192.50;5032931;28;20060;-74
2021/04/15 01:54:34;;;;;;;6.50;5.13;;;;;;;6.46;100.00;101182.13;5034238;28;20119;-72
2021/04/15 01:57:30;;;;;;;6.45;5.38;;;;;;;6.45;100.00;101186.47;5019928;28;20040;-73
2021/04/15 02:00:21;;;;;;;7.10;5.93;;;;;;;6.62;100.00;101187.44;5033735;28;20080;-73
2021/04/15 02:03:17;;;;;;;7.97;6.00;;;;;;;6.56;100.00;101184.81;5033371;28;20021;-73
2021/04/15 02:06:08;;;;;;;8.52;6.35;;;;;;;6.78;100.00;101183.19;5019956;28;20056;-73
2021/04/15 02:09:00;;;;;;;7.95;5.78;;;;;;;6.60;100.00;101196.09;5033833;28;20026;-73
2021/04/15 02:11:52;;;;;;;7.28;5.80;;;;;;;6.60;100.00;101196.09;5033419;28;20068;-73
2021/04/15 02:14:42;;;;;;;7.50;5.60;;;;;;;6.88;100.00;101185.00;5032758;28;20045;-72
2021/04/15 02:17:34;;;;;;;7.57;6.13;;;;;;;6.63;100.00;101194.38;5034157;28;20489;-72
2021/04/15 02:20:23;;;;;;;8.02;6.28;;;;;;;6.71;100.00;101186.63;5020101;28;20345;-73
2021/04/15 02:23:13;;;;;;;8.95;6.38;;;;;;;6.52;100.00;101193.47;5034072;28;20037;-73
2021/04/15 02:26:13;;;;;;;7.55;6.18;;;;;;;6.73;100.00;101196.19;5033584;28;20088;-72
2021/04/15 02:29:05;;;;;;;7.50;6.15;;;;;;;6.98;100.00;101197.19;5037592;28;20036;-72
2021/04/15 02:31:56;;;;;;;8.30;6.28;;;;;;;6.95;100.00;101186.75;5037297;28;20104;-72
2021/04/15 02:34:47;;;;;;;7.45;5.97;;;;;;;6.69;100.00;101189.22;5022809;28;20029;-73
2021/04/15 02:37:46;;;;;;;8.70;6.45;;;;;;;6.61;100.00;101187.44;5036433;28;20044;-73
2021/04/15 02:40:40;;;;;;;7.97;6.15;;;;;;;6.50;100.00;101189.09;5037184;28;20108;-73
2021/04/15 02:43:36;;;;;;;7.78;6.40;;;;;;;6.60;100.00;101191.78;5022028;28;20091;-72
2021/04/15 02:46:45;;;;;;;8.73;6.38;;;;;;;6.72;100.00;101186.66;5035911;28;20037;-73
2021/04/15 02:49:33;;;;;;;9.15;6.65;;;;;;;6.40;100.00;101209.00;5037162;28;20370;-73
2021/04/15 02:52:22;;;;;;;11.32;7.22;;;;;;;6.36;100.00;101199.44;5037362;28;20025;-73
2021/04/15 02:55:13;;;;;;;9.10;7.15;;;;;;;6.70;100.00;101200.50;5035484;28;20043;-73
2021/04/15 02:58:10;;;;;;;11.00;6.85;;;;;;;6.59;100.00;101191.78;5036640;28;20509;-73
2021/04/15 03:00:56;;;;;;;9.13;7.32;;;;;;;6.45;100.00;101196.00;5035283;28;20029;-73
2021/04/15 03:03:44;;;;;;;10.07;7.55;;;;;;;6.19;100.00;101184.56;5036624;28;20025;-72
2021/04/15 03:06:32;;;;;;;9.38;7.00;;;;;;;6.41;100.00;101200.34;5034881;28;20076;-74
2021/04/15 03:09:20;;;;;;;9.73;7.63;;;;;;;6.61;100.00;101197.84;5022775;28;20355;-73
2021/04/15 03:12:32;;;;;;;10.82;7.43;;;;;;;6.60;100.00;101198.72;5022897;28;20362;-73
2021/04/15 03:15:25;;;;;;;9.38;7.45;;;;;;;6.43;100.00;101202.94;5036806;28;20029;-72
2021/04/15 03:18:19;;;;;;;9.68;7.80;;;;;;;6.63;100.00;101204.78;5034595;28;20358;-73
2021/04/15 03:21:26;;;;;;;10.30;7.57;;;;;;;6.35;100.00;101208.06;5035390;28;20030;-73
2021/04/15 03:24:26;;;;;;;11.13;8.05;;;;;;;6.73;100.00;101213.53;5036436;28;20033;-72
2021/04/15 03:27:33;;;;;;;10.63;8.20;;;;;;;6.60;100.00;101219.53;5037414;28;20446;-72
2021/04/15 03:30:32;;;;;;;11.60;8.18;;;;;;;6.53;100.00;101213.44;5034741;28;20123;-72
2021/04/15 03:33:29;;;;;;;12.85;9.32;;;;;;;6.58;100.00;101229.06;5022111;28;20114;-73
2021/04/15 03:36:40;;;;;;;12.90;9.20;;;;;;;6.34;100.00;101227.16;5022383;28;20033;-73
2021/04/15 03:39:33;;;;;;;12.88;9.00;;;;;;;6.46;100.00;101223.75;5033757;28;20446;-72
2021/04/15 03:42:44;;;;;;;11.52;8.93;;;;;;;6.48;100.00;101224.66;5035889;28;20453;-72
2021/04/15 03:45:42;;;;;;;12.05;8.65;;;;;;;6.86;100.00;101231.84;5034376;28;20044;-72
2021/04/15 03:48:34;;;;;;;12.65;9.43;;;;;;;6.81;100.00;101227.47;5035562;28;20033;-72
2021/04/15 03:51:23;;;;;;;12.63;9.15;;;;;;;6.50;100.00;101226.41;5035772;28;20029;-72
2021/04/15 03:54:14;;;;;;;12.68;9.20;;;;;;;6.51;100.00;101225.53;5035890;28;20022;-73
2021/04/15 03:57:01;;;;;;;13.07;9.15;;;;;;;6.44;100.00;101239.41;5034782;28;20029;-72
2021/04/15 04:00:07;;;;;;;12.93;9.52;;;;;;;6.83;100.00;101241.41;5021908;28;20109;-73
2021/04/15 04:02:59;;;;;;;12.73;9.45;;;;;;;6.77;100.00;101244.81;5036005;28;20041;-75
2021/04/15 04:05:56;;;;;;;13.25;9.20;;;;;;;6.73;100.00;101237.84;5022106;28;20107;-74
2021/04/15 04:08:46;;;;;;;12.73;9.00;;;;;;;6.53;100.00;101255.06;5022034;28;20021;-74
2021/04/15 04:11:35;;;;;;;12.60;9.02;;;;;;;6.58;100.00;101257.69;5036324;28;20159;-74
2021/04/15 04:14:33;;;;;;;14.13;9.68;;;;;;;6.61;100.00;101255.13;5035856;28;20428;-74
2021/04/15 04:17:30;;;;;;;16.65;10.10;;;;;;;6.40;100.00;101252.38;5036134;28;20087;-73
2021/04/15 04:20:16;;;;;;;15.80;10.95;;;;;;;6.64;100.00;101252.53;5034863;28;20068;-73
2021/04/15 04:23:10;;;;;;;14.35;10.65;;;;;;;6.73;100.00;101263.00;5035409;28;20029;-75
2021/04/15 04:26:09;;;;;;;15.75;11.40;;;;;;;6.81;100.00;101272.63;5035179;28;20033;-74
2021/04/15 04:29:36;;;;;;;15.38;10.63;;;;;;;7.02;100.00;101271.88;5020903;28;20032;-74
2021/04/15 04:32:25;;;;;;;13.75;10.73;;;;;;;6.75;100.00;101272.56;5035039;28;20025;-74
2021/04/15 04:35:20;;;;;;;15.07;11.25;;;;;;;6.76;100.00;101284.75;5035772;28;20033;-75
2021/04/15 04:38:09;;;;;;;15.93;11.15;;;;;;;6.86;100.00;101280.44;5035166;28;20037;-74
2021/04/15 04:41:04;;;;;;;15.85;10.57;;;;;;;6.80;100.00;101285.63;5022427;28;20362;-74
2021/04/15 04:43:54;;;;;;;15.23;11.25;;;;;;;6.96;100.00;101280.53;5021962;28;20028;-75
2021/04/15 04:46:56;;;;;;;17.15;11.05;;;;;;;6.88;100.00;101278.75;5021305;28;20022;-75
2021/04/15 04:49:45;;;;;;;20.25;11.80;;;;;;;7.01;100.00;101277.94;5034156;28;20022;-74
2021/04/15 04:52:33;;;;;;;15.90;11.43;;;;;;;6.97;100.00;101268.38;5034408;28;20032;-73
2021/04/15 04:55:26;;;;;;;25.77;11.23;;;;;;;6.99;100.00;101271.88;5020589;28;20038;-75
2021/04/15 04:58:16;;;;;;;16.38;11.38;;;;;;;7.10;100.00;101270.19;5034433;28;20029;-74
2021/04/15 05:01:03;;;;;;;17.30;12.43;;;;;;;7.20;100.00;101270.22;5035256;28;20036;-74
2021/04/15 05:03:49;;;;;;;16.00;11.35;;;;;;;7.23;100.00;101274.63;5034840;28;20021;-74
2021/04/15 05:06:40;;;;;;;17.70;12.30;;;;;;;7.32;100.00;101285.06;5020727;28;20128;-75
2021/04/15 05:09:38;;;;;;;17.95;12.68;;;;;;;7.41;100.00;101280.78;5020412;28;20118;-75
2021/04/15 05:12:31;;;;;;;17.88;12.40;;;;;;;7.43;100.00;101286.00;5035010;28;20053;-74
2021/04/15 05:15:17;;;;;;;17.75;12.38;;;;;;;7.30;100.00;101286.78;5033599;28;20025;-75
2021/04/15 05:18:06;;;;;;;19.95;12.55;;;;;;;7.25;100.00;101280.69;5034473;28;20029;-75
2021/04/15 05:20:58;;;;;;;18.73;13.00;;;;;;;7.36;100.00;101281.63;5034679;28;20025;-75
2021/04/15 05:23:56;;;;;;;19.08;13.45;;;;;;;7.37;100.00;101281.63;5035389;28;20104;-74
2021/04/15 05:26:44;;;;;;;18.17;13.25;;;;;;;7.56;100.00;101290.38;5034322;28;20041;-75
2021/04/15 05:29:37;;;;;;;22.05;13.68;;;;;;;7.79;100.00;101288.69;5034521;28;20014;-74
2021/04/15 05:32:24;;;;;;;17.92;12.50;;;;;;;7.90;100.00;101293.09;5021078;28;20025;-75
2021/04/15 05:35:17;;;;;;;18.67;13.23;;;;;;;8.12;100.00;101286.19;5034198;28;20030;-75
2021/04/15 05:38:06;;;;;;;18.33;13.43;;;;;;;8.02;100.00;101285.31;5019945;28;20026;-74
2021/04/15 05:40:55;;;;;;;19.20;13.40;;;;;;;7.98;100.00;101295.72;5035031;28;20429;-74
2021/04/15 05:43:45;;;;;;;18.52;13.45;;;;;;;8.43;100.00;101285.38;5033722;28;20032;-74
2021/04/15 05:46:42;;;;;;;18.25;13.10;;;;;;;8.50;100.00;101284.50;5019876;28;20116;-74
2021/04/15 05:49:35;;;;;;;19.60;13.32;;;;;;;8.29;100.00;101290.59;5033770;28;20029;-75
2021/04/15 05:52:29;;;;;;;20.95;14.30;;;;;;;8.73;100.00;101298.44;5033561;28;20040;-73
2021/04/15 05:55:19;;;;;;;17.42;13.60;;;;;;;9.01;100.00;101295.75;5033416;28;20029;-72
2021/04/15 05:58:30;;;;;;;15.52;11.63;;;;;;;9.25;100.00;101285.25;5033276;28;20025;-72
2021/04/15 06:01:30;;;;;;;18.63;12.77;;;;;;;8.92;100.00;101284.47;5033954;28;20017;-72
2021/04/15 06:04:33;;;;;;;18.20;12.65;;;;;;;8.66;100.00;101291.47;5024336;28;20053;-73
2021/04/15 06:07:22;;;;;;;16.65;13.02;;;;;;;8.74;100.00;101287.09;5037613;28;20462;-73
2021/04/15 06:10:11;;;;;;;16.33;12.48;;;;;;;8.87;100.00;101292.31;5037649;28;20094;-73
2021/04/15 06:13:26;;;;;;;17.50;12.48;;;;;;;8.68;100.00;101297.56;5023996;28;20053;-72
2021/04/15 06:16:23;;;;;;;16.33;11.60;;;;;;;8.88;100.00;101293.19;5026191;28;20029;-72
2021/04/15 06:19:20;;;;;;;15.93;12.05;;;;;;;9.07;100.00;101295.75;5036895;28;20032;-73
2021/04/15 06:22:13;;;;;;;15.23;11.63;;;;;;;9.32;100.00;101300.03;5023624;28;20040;-73
2021/04/15 06:25:06;;;;;;;15.57;11.60;;;;;;;9.23;100.00;101292.22;5037301;28;20045;-73
2021/04/15 06:27:52;;;;;;;15.73;11.93;;;;;;;9.57;100.00;101298.22;5037900;28;20147;-72
2021/04/15 06:30:48;;;;;;;15.73;11.52;;;;;;;9.57;100.00;101293.00;5037388;28;20088;-73
2021/04/15 06:33:35;;;;;;;16.90;11.20;;;;;;;9.51;100.00;101290.38;5037317;28;20036;-73
2021/04/15 06:36:43;;;;;;;15.27;11.82;;;;;;;9.68;100.00;101291.16;5036809;28;20029;-74
2021/04/15 06:39:35;;;;;;;15.30;11.30;;;;;;;9.85;100.00;101286.75;5022589;28;20063;-73
2021/04/15 06:42:38;;;;;;;14.27;11.13;;;;;;;10.00;100.00;101302.34;5024089;28;20029;-73
2021/04/15 06:45:29;;;;;;;14.60;11.13;;;;;;;9.77;100.00;101289.38;5022037;28;20120;-73
2021/04/15 06:48:43;;;;;;;14.23;10.50;;;;;;;9.95;100.00;101298.88;5036836;28;20022;-73
2021/04/15 06:51:51;;;;;;;15.02;11.07;;;;;;;10.19;100.00;101290.91;5036227;28;20021;-72
2021/04/15 06:55:05;;;;;;;14.05;11.50;;;;;;;10.22;100.00;101287.41;5034287;28;20060;-73
2021/04/15 06:58:10;;;;;;;14.18;11.00;;;;;;;10.66;100.00;101288.81;5036085;28;20056;-73
2021/04/15 07:01:26;;;;;;;13.48;10.18;;;;;;;10.58;100.00;101288.00;5022383;28;20127;-72
2021/04/15 07:04:19;;;;;;;13.98;10.68;;;;;;;10.94;100.00;101285.03;5036472;28;20157;-73
2021/04/15 07:07:19;;;;;;;15.63;10.05;;;;;;;10.73;100.00;101295.72;5036383;28;20080;-72
2021/04/15 07:10:14;;;;;;;12.40;10.07;;;;;;;10.72;100.00;101298.38;5035898;28;20021;-72
2021/04/15 07:13:33;;;;;;;11.60;9.43;;;;;;;10.42;100.00;101307.34;5035991;28;20029;-73
2021/04/15 07:16:40;;;;;;;14.18;9.80;;;;;;;10.18;100.00;101306.63;5019373;28;20377;-72
2021/04/15 07:19:35;;;;;;;13.18;10.25;;;;;;;10.55;100.00;101305.47;5034997;28;20112;-73
2021/04/15 07:22:44;;;;;;;13.05;10.80;;;;;;;10.62;100.00;101317.66;5035699;28;20371;-72
2021/04/15 07:25:57;;;;;;;12.80;9.60;;;;;;;10.69;100.00;101314.13;5036390;28;20370;-72
2021/04/15 07:29:07;;;;;;;13.10;10.25;;;;;;;10.93;100.00;101311.28;5036228;28;20422;-73
2021/04/15 07:32:23;;;;;;;13.77;9.93;;;;;;;11.22;100.00;101298.72;5035492;28;20036;-73
2021/04/15 07:35:12;;;;;;;12.18;9.93;;;;;;;11.44;100.00;101297.59;5035805;28;20119;-74
2021/04/15 07:38:11;;;;;;;11.57;9.68;;;;;;;11.70;100.00;101300.81;5034281;28;20033;-73
2021/04/15 07:41:03;;;;;;;13.30;9.93;;;;;;;11.69;100.00;101294.69;5035616;28;20029;-73
2021/04/15 07:43:59;;;;;;;11.35;9.32;;;;;;;11.94;100.00;101297.88;5034038;28;20374;-72
2021/04/15 07:47:13;;;;;;;10.32;8.70;;;;;;;11.67;100.00;101301.72;5035270;28;20067;-72
2021/04/15 07:50:38;;;;;;;12.90;9.00;;;;;;;11.61;100.00;101299.16;4996364;28;20033;-72
2021/04/15 07:53:56;;;;;;;9.80;8.30;;;;;;;12.12;100.00;101303.72;5006495;28;20066;-73
2021/04/15 07:56:55;;;;;;;10.43;8.32;;;;;;;12.22;100.00;101307.94;5035475;28;20056;-72
2021/04/15 07:59:57;;;;;;;9.30;7.72;;;;;;;12.13;100.00;101304.59;5034740;28;20025;-73
2021/04/15 08:02:54;;;;;;;10.68;7.65;;;;;;;12.43;100.00;101307.63;5033706;28;20125;-72
2021/04/15 08:05:46;;;;;;;9.40;7.28;;;;;;;12.70;100.00;101307.16;5035240;28;20064;-73
2021/04/15 08:08:50;;;;;;;8.35;7.22;;;;;;;13.03;100.00;101308.41;5034858;28;20029;-73
2021/04/15 08:12:10;;;;;;;8.43;7.03;;;;;;;12.41;100.00;101305.91;5035563;28;20025;-73
2021/04/15 08:15:33;;;;;;;12.07;6.07;;;;;;;12.53;100.00;101322.34;5033754;28;20040;-73
2021/04/15 08:18:54;;;;;;;8.43;6.88;;;;;;;13.03;100.00;101314.50;5034963;28;20037;-74
2021/04/15 08:22:20;;;;;;;10.63;6.40;;;;;;;13.37;100.00;101313.00;5002102;28;20472;-73
2021/04/15 08:25:22;;;;;;;8.85;6.82;;;;;;;13.10;100.00;101316.13;5019503;28;20115;-73
2021/04/15 08:29:01;;;;;;;9.60;6.82;;;;;;;12.64;100.00;101316.91;5034284;28;20091;-73
2021/04/15 08:32:05;;;;;;;9.30;6.68;;;;;;;12.83;100.00;101306.06;4954779;29;20070;-73
2021/04/15 08:35:03;;;;;;;12.13;7.28;;;;;;;12.95;100.00;101316.38;5035149;28;20035;-74
2021/04/15 08:38:14;;;;;;;10.13;6.65;;;;;;;13.09;100.00;101321.41;5019887;28;20108;-74
2021/04/15 08:41:34;;;;;;;7.82;6.65;;;;;;;12.72;100.00;101321.16;5034554;28;20033;-73
2021/04/15 08:44:59;;;;;;;10.27;6.00;;;;;;;12.56;100.00;101322.31;5020941;28;20025;-73
2021/04/15 08:47:51;;;;;;;8.60;6.80;;;;;;;12.87;100.00;101318.25;5035333;28;20022;-73
2021/04/15 08:50:57;;;;;;;8.38;6.68;;;;;;;13.11;100.00;101315.22;5034640;28;20052;-74
2021/04/15 08:54:01;;;;;;;9.18;7.25;;;;;;;13.20;100.00;101308.94;5034884;28;20029;-74
2021/04/15 08:56:55;;;;;;;10.73;7.18;;;;;;;12.73;100.00;101322.03;5019485;28;20036;-73
2021/04/15 08:59:53;;;;;;;9.63;7.10;;;;;;;12.72;100.00;101321.16;5034807;28;20168;-73
2021/04/15 09:03:01;;;;;;;10.60;7.72;;;;;;;12.71;100.00;101318.56;5033136;28;20063;-73
2021/04/15 09:06:10;;;;;;;9.80;7.88;;;;;;;12.83;100.00;101313.09;5020902;28;20056;-73
2021/04/15 09:09:04;;;;;;;9.40;7.50;;;;;;;12.80;100.00;101324.53;5039430;28;20355;-74
2021/04/15 09:12:06;;;;;;;9.07;7.40;;;;;;;12.34;100.00;101317.41;5033240;28;20025;-74
2021/04/15 09:15:17;;;;;;;11.18;8.07;;;;;;;12.65;100.00;101327.41;5034624;28;20029;-73
2021/04/15 09:18:20;;;;;;;10.20;8.05;;;;;;;12.83;100.00;101315.72;5034018;28;20021;-73
2021/04/15 09:21:21;;;;;;;10.55;8.05;;;;;;;12.96;98.43;101322.50;5034524;28;20028;-73
2021/04/15 09:24:15;;;;;;;12.75;8.95;;;;;;;12.73;100.00;101324.66;5034574;28;20051;-73
2021/04/15 09:27:19;;;;;;;11.75;8.10;;;;;;;12.59;100.00;101322.28;5034295;28;20521;-72
2021/04/15 09:30:30;;;;;;;9.48;7.53;;;;;;;12.98;99.80;101312.88;5032887;28;20189;-73
2021/04/15 09:33:26;;;;;;;8.90;7.53;;;;;;;13.77;93.93;101316.56;5034117;28;20026;-73
2021/04/15 09:36:21;;;;;;;10.10;7.18;;;;;;;14.00;92.55;101311.69;5020112;28;20362;-74
2021/04/15 09:39:40;;;;;;;8.02;6.63;;;;;;;14.30;84.39;101304.84;5032224;28;20022;-73
2021/04/15 09:42:56;;;;;;;11.18;8.10;;;;;;;14.03;88.29;101303.69;5034522;28;20025;-73
2021/04/15 09:46:16;;;;;;;10.60;8.00;;;;;;;14.02;90.87;101307.22;5033513;28;20056;-73
2021/04/15 09:49:13;;;;;;;10.63;7.55;;;;;;;13.69;88.79;101300.06;5032611;28;20026;-73
2021/04/15 09:52:21;;;;;;;8.45;7.05;;;;;;;14.88;85.91;101296.38;5032611;28;20040;-72
2021/04/15 09:55:40;;;;;;;9.45;7.40;;;;;;;14.08;86.58;101298.31;5032228;28;20387;-73
2021/04/15 09:58:34;;;;;;;9.05;6.75;;;;;;;13.41;87.56;101298.00;5034189;28;20040;-74
2021/04/15 10:01:25;;;;;;;6.57;5.82;;;;;;;13.67;84.47;101301.84;5020404;28;20033;-73
2021/04/15 10:04:49;;;;;;;8.25;6.95;;;;;;;13.72;87.63;101288.59;5033894;28;20111;-74
2021/04/15 10:08:12;;;;;;;9.27;7.28;;;;;;;13.35;91.16;101296.34;5034044;28;20056;-72
2021/04/15 10:11:26;;;;;;;11.20;6.78;;;;;;;13.76;88.49;101296.41;5033964;28;20037;-73
2021/04/15 10:14:37;;;;;;;7.32;6.45;;;;;;;14.16;85.47;101289.31;5033154;28;20022;-74
2021/04/15 10:17:44;;;;;;;10.68;7.40;;;;;;;14.04;85.66;101292.25;5034555;28;20067;-75
2021/04/15 10:20:33;;;;;;;8.80;7.20;;;;;;;13.52;89.44;101294.28;5038447;28;20512;-74
2021/04/15 10:23:46;;;;;;;9.02;7.13;;;;;;;13.47;89.40;101287.38;5037172;28;20366;-74
2021/04/15 10:26:34;;;;;;;9.43;7.90;;;;;;;13.11;92.36;101280.19;5035545;28;20029;-75
2021/04/15 10:29:53;;;;;;;12.77;8.18;;;;;;;13.54;90.73;101281.94;5038332;28;20025;-74
2021/04/15 10:33:02;;;;;;;9.82;7.78;;;;;;;13.67;91.37;101280.75;5036191;28;20041;-74
2021/04/15 10:36:10;;;;;;;9.05;7.60;;;;;;;13.89;90.86;101276.78;5034933;28;20033;-74
2021/04/15 10:39:14;;;;;;;10.00;7.53;;;;;;;13.70;89.29;101279.84;5033703;28;20113;-74
2021/04/15 10:42:15;;;;;;;8.93;6.95;;;;;;;13.74;85.93;101279.75;5033555;28;20421;-74
2021/04/15 10:45:33;;;;;;;10.88;6.82;;;;;;;13.61;86.76;101287.94;5019380;28;20088;-74
2021/04/15 10:48:43;;;;;;;11.77;8.60;;;;;;;13.14;94.89;101278.34;5033755;28;20033;-74
2021/04/15 10:51:49;;;;;;;10.40;8.95;;;;;;;13.11;97.23;101280.19;5036541;28;20446;-75
2021/04/15 10:54:44;;;;;;;11.35;8.38;;;;;;;13.59;94.82;101277.44;5023902;28;20033;-75
2021/04/15 10:57:34;;;;;;;9.40;7.65;;;;;;;13.50;91.38;101279.38;5036979;28;20025;-75
2021/04/15 11:00:31;;;;;;;9.77;7.20;;;;;;;14.00;87.18;101280.06;5036512;28;20485;-74
2021/04/15 11:03:23;;;;;;;10.88;7.20;;;;;;;13.27;87.41;101276.34;5036243;28;20087;-74
2021/04/15 11:06:33;;;;;;;11.63;9.40;;;;;;;13.39;91.66;101284.88;5037312;28;20128;-74
2021/04/15 11:09:28;;;;;;;15.95;10.00;;;;;;;13.07;92.73;101275.88;5036809;28;20025;-74
2021/04/15 11:12:17;;;;;;;12.48;10.43;;;;;;;13.20;92.47;101272.97;5022500;28;20022;-75
2021/04/15 11:15:22;;;;;;;10.73;8.90;;;;;;;13.20;91.91;101275.63;5036402;28;20029;-75
2021/04/15 11:18:11;;;;;;;10.35;9.25;;;;;;;13.69;86.88;101268.44;5022401;28;20112;-74
2021/04/15 11:21:15;;;;;;;12.10;9.77;;;;;;;14.14;85.59;101267.41;5021825;28;20465;-74
2021/04/15 11:24:31;;;;;;;10.00;8.88;;;;;;;13.58;86.96;101259.91;5036538;28;20450;-75
2021/04/15 11:27:37;;;;;;;11.13;8.82;;;;;;;13.46;88.81;101260.16;5036598;28;20033;-74
2021/04/15 11:30:37;;;;;;;11.60;9.38;;;;;;;13.12;90.21;101256.47;5036819;28;20105;-74
2021/04/15 11:33:49;;;;;;;11.65;9.68;;;;;;;13.54;89.26;101267.88;5037499;28;20033;-73
2021/04/15 11:36:43;;;;;;;13.30;9.90;;;;;;;13.67;87.38;101257.06;5037402;28;20351;-74
2021/04/15 11:39:32;;;;;;;12.45;10.10;;;;;;;14.04;86.27;101270.31;5037021;28;20025;-74
2021/04/15 11:42:18;;;;;;;13.80;10.52;;;;;;;14.15;86.28;101266.50;5023412;28;20458;-74
2021/04/15 11:45:05;;;;;;;13.60;9.90;;;;;;;14.09;86.33;101257.88;5035508;28;20071;-74
2021/04/15 11:48:12;;;;;;;15.32;10.70;;;;;;;14.02;84.00;101261.56;5036739;28;20350;-73
2021/04/15 11:51:18;;;;;;;11.52;8.93;;;;;;;13.93;82.16;101262.66;5036085;28;20025;-73
2021/04/15 11:54:28;;;;;;;11.98;8.65;;;;;;;13.92;81.55;101267.94;5022254;28;20021;-73
2021/04/15 11:58:03;;;;;;;10.25;8.98;;;;;;;13.86;82.47;101268.06;5021030;28;20382;-74
2021/04/15 12:00:58;;;;;;;11.20;8.50;;;;;;;13.57;84.23;101257.31;5031059;28;20041;-74
2021/04/15 12:03:59;;;;;;;9.75;7.53;;;;;;;13.53;83.94;101253.88;5021862;28;20381;-74
2021/04/15 12:06:54;;;;;;;12.40;7.07;;;;;;;13.30;84.22;101258.72;5035897;28;20118;-74
2021/04/15 12:09:39;;;;;;;8.82;7.15;;;;;;;13.26;84.62;101253.59;5036685;28;20028;-74
2021/04/15 12:12:35;;;;;;;9.52;7.05;;;;;;;13.62;83.57;101251.03;5044766;28;20061;-74
2021/04/15 12:15:27;;;;;;;9.15;6.50;;;;;;;13.99;79.95;101246.69;5024967;28;20146;-74
2021/04/15 12:18:21;;;;;;;9.80;6.82;;;;;;;14.05;77.90;101251.84;5023790;28;20099;-74
2021/04/15 12:21:15;;;;;;;9.70;6.65;;;;;;;13.67;78.28;101243.91;5036505;28;20249;-74
2021/04/15 12:24:17;;;;;;;11.75;6.55;;;;;;;13.47;80.34;101248.72;5034696;28;20079;-74
2021/04/15 12:27:06;;;;;;;8.82;5.75;;;;;;;13.58;83.22;101243.22;5021070;28;20033;-74
2021/04/15 12:30:01;;;;;;;8.25;5.95;;;;;;;13.63;82.07;101249.28;5021695;28;20040;-74
2021/04/15 12:33:09;;;;;;;8.00;6.07;;;;;;;14.24;80.24;101252.28;5020473;28;20033;-74
2021/04/15 12:35:59;;;;;;;8.90;5.85;;;;;;;14.61;77.92;101239.94;5035400;28;20056;-74
2021/04/15 12:39:03;;;;;;;7.90;6.07;;;;;;;14.49;76.95;101256.94;5035168;28;20025;-71
2021/04/15 12:41:51;;;;;;;8.35;5.68;;;;;;;14.55;74.97;101242.75;5033791;28;20028;-74
2021/04/15 12:44:37;;;;;;;8.60;6.13;;;;;;;14.33;74.55;101242.41;5021074;28;20052;-74
2021/04/15 12:47:23;;;;;;;9.48;6.05;;;;;;;14.48;73.18;101243.78;5021280;28;20338;-74
2021/04/15 12:50:10;;;;;;;9.20;5.32;;;;;;;14.28;73.02;101238.13;5034497;28;20052;-75
2021/04/15 12:52:58;;;;;;;7.10;4.97;;;;;;;14.59;70.16;101237.34;5020848;28;20094;-73
2021/04/15 12:55:43;;;;;;;7.10;5.40;;;;;;;14.83;68.35;101235.81;5033366;28;20458;-73
2021/04/15 12:58:30;;;;;;;7.38;6.43;;;;;;;14.19;70.06;101233.91;5032857;28;20033;-74
2021/04/15 13:01:15;;;;;;;7.45;6.30;;;;;;;14.02;70.34;101230.81;5034950;28;20413;-73
2021/04/15 13:04:17;;;;;;;7.97;6.75;;;;;;;14.59;70.05;101224.16;5033460;28;20029;-74
2021/04/15 13:07:03;;;;;;;7.32;5.65;;;;;;;14.75;68.21;101222.84;5021029;28;20064;-75
2021/04/15 13:09:51;;;;;;;7.82;5.60;;;;;;;15.05;67.92;101226.44;5020102;28;20021;-74
2021/04/15 13:12:37;;;;;;;7.28;5.70;;;;;;;14.64;69.08;101222.25;5020562;28;20064;-74
2021/04/15 13:15:23;;;;;;;8.27;5.43;;;;;;;15.08;68.28;101229.00;5033542;28;20089;-74
2021/04/15 13:18:46;;;;;;;8.70;5.82;;;;;;;15.10;67.69;101221.88;5034564;28;20446;-74
2021/04/15 13:21:36;;;;;;;7.80;5.90;;;;;;;14.91;69.11;101227.72;5034302;28;20124;-74
2021/04/15 13:24:46;;;;;;;7.43;6.53;;;;;;;14.55;68.46;101222.50;5034054;28;20100;-74
2021/04/15 13:27:34;;;;;;;8.88;6.03;;;;;;;14.57;68.16;101210.16;5018769;28;20104;-74
2021/04/15 13:30:20;;;;;;;9.27;6.30;;;;;;;14.44;67.35;101213.97;5019661;28;20022;-74
2021/04/15 13:33:09;;;;;;;6.32;5.72;;;;;;;14.57;67.99;101220.69;5033960;28;20033;-73
2021/04/15 13:35:58;;;;;;;5.93;5.32;;;;;;;14.43;68.54;101217.53;5019879;28;20132;-74
2021/04/15 13:39:02;;;;;;;8.55;6.15;;;;;;;14.43;67.34;101232.50;5032743;28;20033;-74